Time;durP1;ratioP1;P1;durP2;ratioP2;P2;SDS_P1;SDS_P2;PMS_P1;PMS_P2;Temp;Humidity;BMP_temperature;BMP_pressure;BME280_temperature;BME280_humidity;BME280_pressure;Samples;Min_cycle;Max_cycle;Signal;HPM_P1;HPM_P2
2020/12/25 00:00:29;;;;;;;1.00;0.82;;;;;;;4.87;83.05;92033.74;1863944;75;21195;-84
2020/12/25 00:02:57;;;;;;;0.98;0.90;;;;;;;4.87;83.33;92045.86;1907451;75;21940;-83
2020/12/25 00:05:26;;;;;;;0.82;0.70;;;;;;;4.86;82.99;92047.03;1885122;76;21148;-84
2020/12/25 00:07:54;;;;;;;1.85;1.07;;;;;;;4.86;82.90;92049.72;1877198;74;21163;-84
2020/12/25 00:10:23;;;;;;;2.40;1.37;;;;;;;4.85;82.99;92050.30;1860841;76;21240;-83
2020/12/25 00:12:51;;;;;;;1.45;1.12;;;;;;;4.85;83.12;92042.78;1866354;74;21128;-83
2020/12/25 00:15:19;;;;;;;0.70;0.70;;;;;;;4.78;82.88;92057.65;1885526;74;21246;-83
2020/12/25 00:17:47;;;;;;;0.50;0.50;;;;;;;4.78;82.88;92057.65;1885603;76;21637;-84
2020/12/25 00:20:17;;;;;;;1.98;1.40;;;;;;;4.79;82.09;92057.83;1885348;74;21496;-83
2020/12/25 00:22:45;;;;;;;0.82;0.70;;;;;;;4.80;81.79;92060.70;1866468;74;22051;-85
2020/12/25 00:25:13;;;;;;;1.05;0.98;;;;;;;4.80;81.79;92060.70;1847980;76;21151;-83
2020/12/25 00:27:42;;;;;;;0.40;0.40;;;;;;;4.79;81.69;92060.52;1862521;77;21151;-79
2020/12/25 00:30:10;;;;;;;0.42;0.40;;;;;;;4.81;81.21;92056.84;1845509;75;21131;-82
2020/12/25 00:32:38;;;;;;;0.40;0.30;;;;;;;4.82;81.35;92044.35;1882205;75;21167;-83
2020/12/25 00:35:06;;;;;;;3.25;1.60;;;;;;;4.83;81.68;92041.08;1889960;74;21148;-84
2020/12/25 00:37:34;;;;;;;2.55;1.42;;;;;;;4.80;81.49;92041.27;1886184;76;21187;-83
2020/12/25 00:40:04;;;;;;;1.02;0.85;;;;;;;4.77;81.43;92052.82;1884762;74;21135;-84
2020/12/25 00:42:32;;;;;;;1.52;0.93;;;;;;;4.75;81.66;92058.43;1878323;76;21262;-83
2020/12/25 00:45:00;;;;;;;1.02;0.93;;;;;;;4.72;81.72;92069.39;1885906;74;21212;-84
2020/12/25 00:47:29;;;;;;;1.45;0.68;;;;;;;4.68;81.84;92063.25;1873571;75;21171;-83
2020/12/25 00:49:57;;;;;;;0.42;0.40;;;;;;;4.66;81.67;92057.48;1886282;75;21138;-86
2020/12/25 00:52:25;;;;;;;0.60;0.57;;;;;;;4.65;81.66;92059.23;1816350;77;21193;-83
2020/12/25 00:54:55;;;;;;;1.02;0.93;;;;;;;4.65;81.66;92059.23;1821282;76;21151;-84
2020/12/25 00:57:24;;;;;;;0.78;0.78;;;;;;;4.65;81.68;92054.61;1846698;77;21128;-84
2020/12/25 00:59:54;;;;;;;1.87;0.90;;;;;;;4.63;81.50;92053.66;1807570;79;21268;-85
2020/12/25 01:02:23;;;;;;;2.20;1.40;;;;;;;4.66;81.30;92061.52;1850616;76;21184;-84
2020/12/25 01:04:52;;;;;;;1.17;1.00;;;;;;;4.68;81.49;92063.84;1874537;76;21144;-84
2020/12/25 01:07:20;;;;;;;1.10;1.00;;;;;;;4.69;81.25;92049.20;1896366;75;21142;-83
2020/12/25 01:09:48;;;;;;;1.20;1.10;;;;;;;4.69;81.25;92049.20;1879492;75;21142;-84
2020/12/25 01:12:16;;;;;;;0.85;0.80;;;;;;;4.72;81.33;92065.94;1887724;76;21536;-84
2020/12/25 01:14:47;;;;;;;1.80;1.55;;;;;;;4.71;81.64;92065.17;1905813;75;21157;-84
2020/12/25 01:17:15;;;;;;;3.67;2.05;;;;;;;4.67;82.05;92055.00;1874275;75;21130;-84
2020/12/25 01:19:43;;;;;;;2.40;1.57;;;;;;;4.65;82.67;92068.06;1886290;75;21145;-84
2020/12/25 01:22:12;;;;;;;0.65;0.65;;;;;;;4.60;82.78;92079.25;1825882;77;21623;-84
2020/12/25 01:24:40;;;;;;;0.70;0.70;;;;;;;4.59;82.27;92067.72;1776004;80;21209;-83
2020/12/25 01:27:08;;;;;;;0.70;0.70;;;;;;;4.59;82.27;92067.72;1853400;77;21178;-83
2020/12/25 01:29:36;;;;;;;0.30;0.30;;;;;;;4.57;82.35;92065.98;1862664;77;21112;-84
2020/12/25 01:32:04;;;;;;;0.50;0.50;;;;;;;4.57;81.65;92062.52;1856954;77;21147;-83
2020/12/25 01:34:34;;;;;;;0.35;0.35;;;;;;;4.58;81.59;92070.78;1854416;77;21527;-84
2020/12/25 01:37:02;;;;;;;1.45;0.88;;;;;;;4.61;81.58;92072.12;1852753;77;21182;-83
2020/12/25 01:39:30;;;;;;;0.90;0.70;;;;;;;4.62;81.78;92066.15;1850296;77;21159;-83
2020/12/25 01:41:59;;;;;;;0.62;0.62;;;;;;;4.62;81.90;92072.30;1850681;76;21174;-81
2020/12/25 01:44:27;;;;;;;0.37;0.37;;;;;;;4.60;81.73;92071.94;1851104;77;21150;-83
2020/12/25 01:46:56;;;;;;;0.30;0.30;;;;;;;4.60;81.04;92073.87;1852501;77;21162;-83
2020/12/25 01:49:24;;;;;;;0.45;0.30;;;;;;;4.62;81.24;92074.99;1852722;77;21254;-83
2020/12/25 01:51:52;;;;;;;1.25;0.50;;;;;;;4.63;81.37;92081.17;1851404;77;21393;-83
2020/12/25 01:54:20;;;;;;;0.15;0.15;;;;;;;4.63;81.37;92081.17;1854898;77;21135;-83
2020/12/25 01:56:50;;;;;;;0.82;0.23;;;;;;;4.64;81.03;92078.66;1853883;77;21123;-82
2020/12/25 01:59:18;;;;;;;0.93;0.65;;;;;;;4.62;80.84;92085.77;1853567;77;21174;-81
2020/12/25 02:01:47;;;;;;;1.27;1.05;;;;;;;4.63;80.55;92078.48;1853065;76;22047;-82
2020/12/25 02:04:15;;;;;;;3.72;3.12;;;;;;;4.62;80.67;92076.34;1848390;77;21155;-85
2020/12/25 02:06:45;;;;;;;1.30;1.20;;;;;;;4.62;80.48;92076.34;1851070;76;21678;-83
2020/12/25 02:09:13;;;;;;;0.85;0.50;;;;;;;4.60;80.28;92075.98;1851197;77;21578;-83
2020/12/25 02:11:41;;;;;;;0.10;0.10;;;;;;;4.59;80.14;92069.06;1852966;77;21167;-83
2020/12/25 02:14:10;;;;;;;0.28;0.28;;;;;;;4.57;80.20;92067.33;1858185;77;21613;-78
2020/12/25 02:16:38;;;;;;;0.85;0.85;;;;;;;4.53;79.78;92075.23;1865195;75;21814;-84
2020/12/25 02:19:06;;;;;;;0.72;0.55;;;;;;;4.53;80.02;92067.92;1819346;75;21184;-81
2020/12/25 02:21:34;;;;;;;1.20;0.85;;;;;;;4.51;80.43;92071.56;1866994;76;21599;-84
2020/12/25 02:24:03;;;;;;;0.60;0.60;;;;;;;4.49;80.70;92070.44;1898966;74;21230;-83
2020/12/25 02:26:31;;;;;;;1.95;0.80;;;;;;;4.47;80.45;92063.31;1882699;75;21182;-81
2020/12/25 02:28:59;;;;;;;0.20;0.20;;;;;;;4.45;80.22;92066.99;1888811;74;21134;-80
2020/12/25 02:31:28;;;;;;;0.37;0.33;;;;;;;4.43;80.12;92071.40;1865537;75;21168;-84
2020/12/25 02:33:56;;;;;;;0.40;0.28;;;;;;;4.43;80.28;92069.29;1813249;78;21648;-82
2020/12/25 02:36:24;;;;;;;0.37;0.37;;;;;;;4.42;80.48;92069.11;1825454;78;21166;-85
2020/12/25 02:38:53;;;;;;;1.02;0.80;;;;;;;4.40;80.34;92057.39;1879752;75;22304;-84
2020/12/25 02:41:21;;;;;;;0.62;0.50;;;;;;;4.39;80.44;92070.64;1850101;76;21168;-83
2020/12/25 02:43:50;;;;;;;0.55;0.50;;;;;;;4.35;80.33;92062.58;1839030;77;21181;-82
2020/12/25 02:46:21;;;;;;;0.72;0.60;;;;;;;4.34;80.16;92066.43;1890989;74;21191;-84
2020/12/25 02:48:49;;;;;;;0.90;0.80;;;;;;;4.32;80.22;92067.38;1928371;74;21132;-86
2020/12/25 02:51:18;;;;;;;0.35;0.35;;;;;;;4.29;80.21;92070.11;1930522;74;21166;-82
2020/12/25 02:53:46;;;;;;;2.60;0.70;;;;;;;4.26;80.63;92074.34;1877113;74;21155;-82
2020/12/25 02:56:19;;;;;;;1.40;0.68;;;;;;;4.23;80.55;92090.48;1829005;77;21562;-83
2020/12/25 02:58:47;;;;;;;0.30;0.30;;;;;;;4.20;80.67;92083.95;1848227;77;21594;-86
2020/12/25 03:01:16;;;;;;;0.42;0.37;;;;;;;4.19;80.10;92088.38;1820184;78;21452;-81
2020/12/25 03:03:44;;;;;;;0.33;0.33;;;;;;;4.20;80.07;92087.98;1828939;78;21256;-84
2020/12/25 03:06:13;;;;;;;0.70;0.60;;;;;;;4.20;80.33;92083.19;1857194;76;21093;-84
2020/12/25 03:08:41;;;;;;;1.17;0.57;;;;;;;4.18;80.32;92083.58;1870140;75;21160;-82
2020/12/25 03:11:10;;;;;;;0.70;0.60;;;;;;;4.18;80.34;92083.58;1860536;77;21166;-83
2020/12/25 03:13:39;;;;;;;0.80;0.80;;;;;;;4.18;80.00;92069.36;1873072;74;21153;-83
2020/12/25 03:16:07;;;;;;;0.45;0.45;;;;;;;4.15;80.08;92062.83;1899329;75;21180;-83
2020/12/25 03:18:35;;;;;;;0.40;0.40;;;;;;;4.11;80.28;92068.21;1870331;76;21122;-86
2020/12/25 03:21:03;;;;;;;0.88;0.82;;;;;;;4.08;80.19;92069.56;1884420;76;21586;-83
2020/12/25 03:23:31;;;;;;;0.45;0.30;;;;;;;4.05;80.44;92069.75;1864650;76;21116;-79
2020/12/25 03:25:59;;;;;;;0.30;0.30;;;;;;;4.03;80.15;92073.41;1875509;75;21147;-82
2020/12/25 03:28:27;;;;;;;0.10;0.10;;;;;;;4.02;79.31;92065.13;1892074;75;21625;-82
2020/12/25 03:30:56;;;;;;;0.30;0.30;;;;;;;4.05;79.06;92056.30;1880399;75;21656;-83
2020/12/25 03:33:24;;;;;;;1.50;1.40;;;;;;;4.07;79.30;92068.80;1886669;75;21143;-82
2020/12/25 03:35:52;;;;;;;1.77;0.47;;;;;;;4.04;79.55;92065.53;1885341;76;21617;-83
2020/12/25 03:38:20;;;;;;;0.35;0.20;;;;;;;4.02;79.18;92059.75;1886505;75;21068;-82
2020/12/25 03:40:48;;;;;;;0.70;0.50;;;;;;;4.00;79.31;92059.97;1886901;76;21797;-83
2020/12/25 03:43:17;;;;;;;0.37;0.37;;;;;;;3.97;79.60;92053.43;1881080;76;21154;-82
2020/12/25 03:45:45;;;;;;;0.57;0.40;;;;;;;3.95;79.01;92052.27;1881710;76;21538;-83
2020/12/25 03:48:14;;;;;;;0.40;0.40;;;;;;;3.95;79.07;92056.30;1881608;76;21028;-83
2020/12/25 03:50:42;;;;;;;0.40;0.30;;;;;;;3.96;79.22;92069.38;1881119;76;22272;-83
2020/12/25 03:53:11;;;;;;;0.50;0.40;;;;;;;3.96;79.21;92083.41;1883695;75;21627;-83
2020/12/25 03:55:39;;;;;;;0.50;0.30;;;;;;;3.94;79.26;92081.09;1878040;76;21303;-84
2020/12/25 03:58:07;;;;;;;0.57;0.53;;;;;;;3.95;78.98;92081.86;1821624;78;21208;-83
2020/12/25 04:00:36;;;;;;;0.90;0.40;;;;;;;3.94;79.29;92082.44;1821037;78;21256;-83
2020/12/25 04:03:05;;;;;;;0.60;0.60;;;;;;;3.95;79.51;92077.82;1825928;78;21168;-83
2020/12/25 04:05:33;;;;;;;1.60;1.05;;;;;;;3.94;79.59;92074.37;1846295;77;22093;-83
2020/12/25 04:08:01;;;;;;;1.72;0.90;;;;;;;3.92;79.37;92069.97;1870948;75;21171;-83
2020/12/25 04:10:29;;;;;;;2.02;1.12;;;;;;;3.94;79.18;92070.34;1887826;75;21153;-81
2020/12/25 04:13:00;;;;;;;1.60;1.15;;;;;;;3.92;78.92;92071.31;1883160;76;21182;-83
2020/12/25 04:15:27;;;;;;;1.98;1.35;;;;;;;3.90;79.27;92071.68;1835738;76;21085;-83
2020/12/25 04:17:56;;;;;;;3.47;1.67;;;;;;;3.89;79.27;92064.01;1823516;78;22055;-82
2020/12/25 04:20:24;;;;;;;1.85;1.10;;;;;;;3.86;79.13;92065.53;1816303;78;21141;-83
2020/12/25 04:22:52;;;;;;;0.65;0.60;;;;;;;3.85;79.21;92074.00;1818426;76;21108;-84
2020/12/25 04:25:20;;;;;;;2.37;1.32;;;;;;;3.86;79.52;92077.64;1841086;77;21116;-83
2020/12/25 04:27:49;;;;;;;1.80;1.60;;;;;;;3.86;80.06;92077.64;1819687;77;21202;-84
2020/12/25 04:30:17;;;;;;;1.00;0.90;;;;;;;3.83;80.16;92077.64;1870632;74;21431;-83
2020/12/25 04:32:45;;;;;;;0.70;0.70;;;;;;;3.83;80.30;92081.67;1882687;74;21250;-84
2020/12/25 04:35:14;;;;;;;0.62;0.57;;;;;;;3.80;80.45;92087.81;1877502;76;21402;-83
2020/12/25 04:37:42;;;;;;;0.90;0.80;;;;;;;3.77;80.93;92084.58;1887112;75;21167;-83
2020/12/25 04:40:10;;;;;;;0.80;0.80;;;;;;;3.76;81.11;92095.11;1890278;75;21495;-82
2020/12/25 04:42:40;;;;;;;0.65;0.30;;;;;;;3.74;80.99;92086.68;1861098;75;22145;-83
2020/12/25 04:45:09;;;;;;;0.80;0.40;;;;;;;3.73;81.06;92074.40;1878038;76;21107;-83
2020/12/25 04:47:37;;;;;;;0.60;0.60;;;;;;;3.72;81.31;92087.63;1855200;76;21173;-83
2020/12/25 04:50:05;;;;;;;0.70;0.60;;;;;;;3.69;81.15;92085.73;1791728;78;21168;-83
2020/12/25 04:52:34;;;;;;;1.22;0.95;;;;;;;3.67;81.14;92089.36;1821337;78;21173;-83
2020/12/25 04:55:03;;;;;;;1.25;0.70;;;;;;;3.65;81.15;92093.80;1822732;78;21623;-82
2020/12/25 04:57:31;;;;;;;0.62;0.60;;;;;;;3.64;81.07;92102.41;1904694;74;21528;-83
2020/12/25 04:59:59;;;;;;;1.02;0.50;;;;;;;3.65;81.05;92103.97;1846653;77;21164;-82
2020/12/25 05:02:29;;;;;;;0.47;0.47;;;;;;;3.67;81.04;92105.49;1897856;74;21158;-83
2020/12/25 05:04:57;;;;;;;0.95;0.50;;;;;;;3.67;81.05;92105.49;1809007;77;21175;-84
2020/12/25 05:07:25;;;;;;;1.42;1.00;;;;;;;3.68;81.01;92109.70;1805076;77;22141;-83
2020/12/25 05:09:55;;;;;;;2.02;1.00;;;;;;;3.68;81.21;92113.74;1869580;75;21216;-84
2020/12/25 05:12:23;;;;;;;1.80;1.25;;;;;;;3.69;81.27;92109.34;1854709;75;21179;-84
2020/12/25 05:14:51;;;;;;;1.47;1.35;;;;;;;3.71;81.21;92123.16;1781818;77;21147;-84
2020/12/25 05:17:20;;;;;;;2.25;1.37;;;;;;;3.72;81.33;92122.00;1852018;77;21163;-83
2020/12/25 05:19:48;;;;;;;4.25;2.60;;;;;;;3.77;81.10;92139.11;1808237;75;21362;-86
2020/12/25 05:22:17;;;;;;;5.83;3.85;;;;;;;3.76;80.92;92138.92;1852811;75;21198;-84
2020/12/25 05:24:45;;;;;;;7.78;4.65;;;;;;;3.74;80.88;92136.42;1817863;77;21460;-85
2020/12/25 05:27:13;;;;;;;2.17;1.32;;;;;;;3.69;80.88;92122.79;1870553;74;21146;-83
2020/12/25 05:29:42;;;;;;;1.90;1.05;;;;;;;3.66;80.92;92131.61;1886360;75;21428;-84
2020/12/25 05:32:10;;;;;;;0.70;0.70;;;;;;;3.64;81.03;92135.24;1867404;74;21242;-84
2020/12/25 05:34:38;;;;;;;1.75;0.93;;;;;;;3.63;80.84;92135.06;1865184;75;21640;-84
2020/12/25 05:37:09;;;;;;;1.75;1.20;;;;;;;3.63;80.98;92134.48;1884344;75;21218;-84
2020/12/25 05:39:38;;;;;;;1.82;0.62;;;;;;;3.62;80.58;92145.63;1892488;74;21222;-83
2020/12/25 05:42:07;;;;;;;0.78;0.78;;;;;;;3.62;80.29;92145.05;1887305;75;21148;-83
2020/12/25 05:44:47;;;;;;;1.30;1.05;;;;;;;3.62;80.63;92152.34;1860996;76;21193;-85
2020/12/25 05:47:16;;;;;;;3.45;1.35;;;;;;;3.59;80.93;92145.04;1832464;77;22075;-83
2020/12/25 05:49:45;;;;;;;2.45;1.50;;;;;;;3.55;81.25;92153.09;1863386;77;21230;-83
2020/12/25 05:52:13;;;;;;;2.40;1.70;;;;;;;3.51;81.45;92153.67;1898053;75;21206;-83
2020/12/25 05:54:45;;;;;;;1.95;1.65;;;;;;;3.50;81.89;92158.86;1845323;75;21192;-83
2020/12/25 05:57:13;;;;;;;2.85;2.20;;;;;;;3.51;82.11;92150.98;1848270;77;22087;-84
2020/12/25 05:59:43;;;;;;;2.85;1.82;;;;;;;3.53;82.09;92152.70;1875958;75;21143;-84
2020/12/25 06:02:12;;;;;;;3.72;1.30;;;;;;;3.53;82.00;92154.04;1898459;75;21147;-84
2020/12/25 06:04:41;;;;;;;2.22;1.40;;;;;;;3.54;81.73;92158.86;1884308;76;21709;-84
2020/12/25 06:07:11;;;;;;;1.27;1.17;;;;;;;3.55;81.88;92166.53;1824984;76;21187;-83
2020/12/25 06:09:43;;;;;;;2.15;1.95;;;;;;;3.54;82.46;92165.59;1837132;78;21190;-83
2020/12/25 06:12:14;;;;;;;1.92;1.60;;;;;;;3.48;82.68;92161.14;1850379;77;21079;-88
2020/12/25 06:14:44;;;;;;;2.55;2.35;;;;;;;3.46;82.83;92162.66;1878095;75;21169;-85
2020/12/25 06:17:21;;;;;;;2.22;2.12;;;;;;;3.46;82.91;92162.66;1820592;78;21197;-84
2020/12/25 06:20:02;;;;;;;2.55;1.90;;;;;;;3.43;82.97;92164.79;1806086;79;21185;-83
2020/12/25 06:22:38;;;;;;;3.98;2.70;;;;;;;3.38;83.14;92174.73;1858310;77;21235;-85
2020/12/25 06:25:14;;;;;;;2.87;2.58;;;;;;;3.36;83.87;92190.48;1878354;75;21155;-85
2020/12/25 06:27:59;;;;;;;5.40;4.00;;;;;;;3.33;84.26;92193.92;1894498;75;21169;-85
2020/12/25 06:30:30;;;;;;;4.20;3.17;;;;;;;3.26;84.53;92183.15;1890280;75;21139;-84
2020/12/25 06:32:58;;;;;;;6.40;3.30;;;;;;;3.19;84.80;92185.80;1888977;74;21123;-85
2020/12/25 06:35:35;;;;;;;4.03;3.45;;;;;;;3.15;85.21;92185.79;1895246;75;21421;-84
2020/12/25 06:38:08;;;;;;;5.85;4.47;;;;;;;3.14;85.30;92177.55;1882587;75;21167;-85
2020/12/25 06:40:37;;;;;;;6.03;4.60;;;;;;;3.16;85.52;92184.66;1885673;75;21132;-85
2020/12/25 06:43:20;;;;;;;5.55;4.10;;;;;;;3.18;85.74;92182.93;1858734;76;21180;-85
2020/12/25 06:45:53;;;;;;;4.60;3.27;;;;;;;3.15;85.74;92194.42;1880469;74;21146;-85
2020/12/25 06:48:22;;;;;;;5.10;3.75;;;;;;;3.10;85.37;92188.84;1878275;75;21194;-84
2020/12/25 06:50:55;;;;;;;4.12;2.92;;;;;;;3.07;86.17;92186.91;1871332;74;21175;-85
2020/12/25 06:53:40;;;;;;;2.62;2.42;;;;;;;3.00;86.03;92196.86;1894526;75;21067;-83
2020/12/25 06:56:14;;;;;;;3.37;2.77;;;;;;;2.94;85.84;92197.80;1827192;78;21078;-82
2020/12/25 06:58:52;;;;;;;3.15;2.47;;;;;;;2.88;85.83;92198.72;1855044;76;21172;-86
2020/12/25 07:01:38;;;;;;;3.90;2.35;;;;;;;2.86;85.59;92201.60;1896822;74;21178;-82
2020/12/25 07:04:07;;;;;;;2.80;2.60;;;;;;;2.85;85.71;92204.84;1867956;75;21158;-85
2020/12/25 07:06:37;;;;;;;2.65;2.40;;;;;;;2.84;85.58;92199.27;1798881;77;21218;-83
2020/12/25 07:09:11;;;;;;;7.80;5.05;;;;;;;2.88;85.64;92212.72;1858854;74;21187;-83
2020/12/25 07:11:39;;;;;;;4.33;3.75;;;;;;;2.91;85.74;92206.61;1805891;75;21185;-86
2020/12/25 07:14:09;;;;;;;3.55;2.80;;;;;;;2.92;85.71;92199.50;1888820;75;21700;-82
2020/12/25 07:16:37;;;;;;;4.78;4.37;;;;;;;2.91;85.43;92206.03;1883584;75;21717;-83
2020/12/25 07:19:06;;;;;;;4.35;3.70;;;;;;;2.94;85.53;92224.66;1830285;77;21184;-85
2020/12/25 07:21:34;;;;;;;4.30;3.62;;;;;;;2.94;85.54;92224.66;1832720;77;21635;-84
2020/12/25 07:24:03;;;;;;;3.85;3.33;;;;;;;2.96;85.51;92215.64;1829281;76;21143;-84
2020/12/25 07:26:31;;;;;;;5.58;4.22;;;;;;;2.97;85.55;92215.06;1883985;76;21258;-84
2020/12/25 07:29:00;;;;;;;6.05;3.75;;;;;;;2.98;85.48;92217.39;1865479;76;21148;-83
2020/12/25 07:31:28;;;;;;;6.12;4.08;;;;;;;2.99;85.63;92212.78;1885402;74;22237;-85
2020/12/25 07:33:58;;;;;;;4.20;3.62;;;;;;;3.01;85.74;92211.81;1870041;75;21182;-84
2020/12/25 07:36:26;;;;;;;5.05;3.65;;;;;;;3.01;86.05;92216.64;1866531;76;21127;-84
2020/12/25 07:39:04;;;;;;;5.08;3.35;;;;;;;3.06;86.28;92218.95;1875023;76;21425;-84
2020/12/25 07:41:36;;;;;;;4.80;3.85;;;;;;;3.10;86.30;92217.63;1847057;76;21195;-85
2020/12/25 07:44:04;;;;;;;4.85;3.83;;;;;;;3.18;86.09;92222.45;1838494;76;21146;-85
2020/12/25 07:46:32;;;;;;;8.43;4.28;;;;;;;3.22;86.10;92229.38;1873605;74;21175;-84
2020/12/25 07:49:01;;;;;;;6.00;5.15;;;;;;;3.27;86.23;92228.24;1870804;76;21637;-84
2020/12/25 07:51:29;;;;;;;6.62;5.62;;;;;;;3.30;86.32;92221.54;1844013;76;21419;-84
2020/12/25 07:54:01;;;;;;;21.40;15.83;;;;;;;3.29;85.97;92221.93;1845424;77;21247;-85
2020/12/25 07:56:35;;;;;;;6.87;4.97;;;;;;;3.27;85.88;92222.88;1842995;77;21526;-84
2020/12/25 07:59:04;;;;;;;4.70;3.65;;;;;;;3.27;85.59;92226.34;1825275;78;21134;-84
2020/12/25 08:01:33;;;;;;;15.58;9.15;;;;;;;3.27;85.23;92238.98;1860365;76;21141;-83
2020/12/25 08:04:02;;;;;;;9.18;6.83;;;;;;;3.26;85.48;92250.89;1891514;74;21152;-84
2020/12/25 08:06:32;;;;;;;5.45;4.25;;;;;;;3.26;85.65;92250.31;1889615;74;21187;-85
2020/12/25 08:09:08;;;;;;;7.72;4.60;;;;;;;3.31;85.53;92259.92;1833315;77;21349;-84
2020/12/25 08:11:38;;;;;;;6.75;5.20;;;;;;;3.32;85.41;92262.83;1840097;77;21180;-85
2020/12/25 08:14:10;;;;;;;7.20;5.28;;;;;;;3.32;85.79;92264.94;1848979;77;21127;-85
2020/12/25 08:16:41;;;;;;;6.87;5.08;;;;;;;3.34;86.11;92269.92;1883601;74;21167;-84
2020/12/25 08:19:09;;;;;;;5.45;4.53;;;;;;;3.35;86.21;92282.23;1831231;77;21183;-83
2020/12/25 08:21:39;;;;;;;9.13;5.92;;;;;;;3.34;86.30;92293.53;1872629;74;21205;-84
2020/12/25 08:24:07;;;;;;;9.10;5.40;;;;;;;3.32;86.59;92287.78;1910725;74;21303;-84
2020/12/25 08:26:38;;;;;;;7.00;4.42;;;;;;;3.33;86.82;92278.56;1852653;77;21159;-84
2020/12/25 08:29:06;;;;;;;8.53;4.80;;;;;;;3.35;86.58;92270.14;1847595;77;21243;-83
2020/12/25 08:32:00;;;;;;;8.60;6.42;;;;;;;3.38;86.68;92266.67;1849101;75;21230;-83
2020/12/25 08:34:28;;;;;;;16.65;11.88;;;;;;;3.37;86.99;92264.56;1873439;76;21175;-77
2020/12/25 08:37:02;;;;;;;15.43;10.53;;;;;;;3.34;87.16;92257.25;1830617;76;21510;-76
2020/12/25 08:39:31;;;;;;;19.65;14.10;;;;;;;3.29;87.45;92261.66;1814954;78;21179;-75
2020/12/25 08:41:59;;;;;;;23.05;14.38;;;;;;;3.32;87.96;92262.83;1814465;78;21267;-75
2020/12/25 08:44:28;;;;;;;23.85;16.12;;;;;;;3.30;88.17;92268.56;1810851;78;21022;-76
2020/12/25 08:47:10;;;;;;;16.95;12.33;;;;;;;3.29;88.53;92268.95;1794594;76;21159;-75
2020/12/25 08:49:40;;;;;;;15.65;10.53;;;;;;;3.27;88.77;92276.05;1883606;75;21217;-78
2020/12/25 08:52:24;;;;;;;23.05;13.15;;;;;;;3.28;88.97;92262.81;1802991;78;21170;-75
2020/12/25 08:54:58;;;;;;;15.80;10.68;;;;;;;3.33;89.18;92263.78;1816566;77;21427;-73
2020/12/25 08:57:29;;;;;;;24.60;15.78;;;;;;;3.39;88.98;92262.28;1822920;77;21167;-74
2020/12/25 09:00:07;;;;;;;35.03;19.85;;;;;;;3.43;88.95;92258.27;1818034;78;21150;-74
2020/12/25 09:02:39;;;;;;;20.95;14.30;;;;;;;3.45;88.91;92265.94;1829336;76;21628;-74
2020/12/25 09:05:08;;;;;;;28.02;17.60;;;;;;;3.41;88.82;92275.33;1842992;75;21072;-74
2020/12/25 09:07:36;;;;;;;25.43;16.02;;;;;;;3.43;88.92;92274.97;1867901;76;21182;-74
2020/12/25 09:10:04;;;;;;;21.70;14.83;;;;;;;3.47;88.65;92271.72;1818361;76;21119;-74
2020/12/25 09:12:32;;;;;;;28.20;16.17;;;;;;;3.53;88.63;92276.91;1807858;79;21163;-74
2020/12/25 09:15:00;;;;;;;24.80;15.68;;;;;;;3.56;88.58;92278.27;1810491;78;21170;-74
2020/12/25 09:17:28;;;;;;;28.50;15.70;;;;;;;3.55;88.52;92276.73;1849382;76;21870;-75
2020/12/25 09:19:57;;;;;;;22.77;15.78;;;;;;;3.55;88.26;92274.05;1767147;80;21495;-75
2020/12/25 09:22:25;;;;;;;16.95;11.85;;;;;;;3.54;88.13;92275.20;1807916;78;21175;-74
2020/12/25 09:24:53;;;;;;;12.73;8.20;;;;;;;3.51;88.04;92280.57;1818171;78;21240;-76
2020/12/25 09:27:21;;;;;;;10.90;7.33;;;;;;;3.51;87.83;92275.95;1845421;76;21178;-74
2020/12/25 09:29:49;;;;;;;15.90;11.73;;;;;;;3.49;87.45;92284.96;1838627;76;22038;-74
2020/12/25 09:32:17;;;;;;;28.90;18.00;;;;;;;3.47;87.58;92275.17;1803576;78;22280;-74
2020/12/25 09:34:45;;;;;;;56.98;25.55;;;;;;;3.43;88.04;92263.64;1785699;78;21616;-74
2020/12/25 09:37:14;;;;;;;32.85;21.85;;;;;;;3.41;88.37;92270.72;1822557;77;21709;-74
2020/12/25 09:39:44;;;;;;;37.98;26.97;;;;;;;3.42;88.32;92267.45;1819110;78;21187;-74
2020/12/25 09:42:12;;;;;;;28.25;20.70;;;;;;;3.34;88.20;92261.28;1801768;78;21139;-74
2020/12/25 09:44:40;;;;;;;16.93;12.47;;;;;;;3.31;88.63;92268.78;1781086;79;21331;-75
2020/12/25 09:47:08;;;;;;;19.65;11.50;;;;;;;3.29;88.47;92263.00;1814806;79;21218;-74
2020/12/25 09:49:36;;;;;;;54.58;32.93;;;;;;;3.30;88.66;92268.56;1803928;79;21618;-74
2020/12/25 09:52:05;;;;;;;36.98;22.02;;;;;;;3.37;89.10;92270.52;1792398;79;21207;-74
2020/12/25 09:54:33;;;;;;;22.05;15.50;;;;;;;3.41;89.33;92269.95;1839726;75;21134;-74
2020/12/25 09:57:02;;;;;;;19.70;12.60;;;;;;;3.46;89.46;92279.57;1866837;75;21771;-74
2020/12/25 09:59:31;;;;;;;15.40;10.78;;;;;;;3.46;89.41;92285.73;1804388;79;21163;-74
2020/12/25 10:01:59;;;;;;;11.80;8.80;;;;;;;3.46;89.40;92283.59;1798675;79;21021;-74
2020/12/25 10:04:27;;;;;;;8.00;6.15;;;;;;;3.45;89.37;92288.78;1799940;79;21203;-74
2020/12/25 10:06:57;;;;;;;16.23;11.22;;;;;;;3.46;89.53;92288.98;1797493;79;21150;-74
2020/12/25 10:09:29;;;;;;;17.57;12.95;;;;;;;3.47;89.58;92284.58;1804538;78;21189;-74
2020/12/25 10:11:59;;;;;;;12.63;9.20;;;;;;;3.51;89.58;92284.60;1825985;75;21186;-74
2020/12/25 10:14:28;;;;;;;13.78;9.78;;;;;;;3.55;89.38;92284.80;1877571;76;21788;-74
2020/12/25 10:16:58;;;;;;;21.27;11.95;;;;;;;3.60;88.97;92288.46;1795676;78;21159;-74
2020/12/25 10:19:28;;;;;;;21.05;12.65;;;;;;;3.58;88.78;92290.01;1889677;75;21027;-74
2020/12/25 10:21:57;;;;;;;15.88;10.38;;;;;;;3.54;89.09;92298.05;1892329;75;21779;-74
2020/12/25 10:24:25;;;;;;;11.70;8.30;;;;;;;3.56;89.21;92298.43;1858324;76;21231;-75
2020/12/25 10:26:53;;;;;;;9.85;7.30;;;;;;;3.59;89.18;92300.37;1810766;77;21361;-74
2020/12/25 10:29:22;;;;;;;7.42;5.60;;;;;;;3.63;89.26;92303.08;1827841;78;21655;-74
2020/12/25 10:31:51;;;;;;;9.20;6.67;;;;;;;3.67;88.98;92305.78;1806227;78;21151;-74
2020/12/25 10:34:20;;;;;;;17.62;12.47;;;;;;;3.71;88.52;92307.33;1791562;79;21965;-77
2020/12/25 10:36:48;;;;;;;15.35;10.90;;;;;;;3.72;88.83;92302.72;1751605;81;21195;-77
2020/12/25 10:39:16;;;;;;;17.25;12.33;;;;;;;3.73;89.19;92302.93;1792046;77;21135;-74
2020/12/25 10:41:45;;;;;;;16.55;11.18;;;;;;;3.75;89.29;92301.38;1811061;78;21186;-74
2020/12/25 10:44:14;;;;;;;13.80;8.78;;;;;;;3.80;89.13;92311.79;1772480;80;21191;-74
2020/12/25 10:46:42;;;;;;;12.93;9.33;;;;;;;3.84;89.06;92309.88;1806387;78;21658;-74
2020/12/25 10:49:11;;;;;;;15.72;9.63;;;;;;;3.86;88.30;92303.53;1788959;78;21553;-74
2020/12/25 10:51:47;;;;;;;13.50;9.68;;;;;;;3.86;87.99;92300.08;1839503;76;21139;-74
2020/12/25 10:54:16;;;;;;;17.12;9.13;;;;;;;3.84;87.85;92297.78;1869347;76;21448;-75
2020/12/25 10:56:44;;;;;;;15.35;9.68;;;;;;;3.84;87.75;92305.08;1869061;76;21151;-75
2020/12/25 10:59:14;;;;;;;18.10;11.20;;;;;;;3.83;87.68;92302.94;1821411;77;21247;-75
2020/12/25 11:01:46;;;;;;;15.23;9.98;;;;;;;3.82;87.89;92304.09;1805553;78;21203;-75
2020/12/25 11:04:14;;;;;;;16.23;10.30;;;;;;;3.81;88.21;92308.52;1812167;79;21187;-76
2020/12/25 11:06:44;;;;;;;14.30;9.38;;;;;;;3.79;88.36;92301.40;1851467;77;21635;-76
2020/12/25 11:09:14;;;;;;;11.28;8.30;;;;;;;3.76;88.21;92308.33;1879776;75;21293;-76
2020/12/25 11:11:43;;;;;;;11.78;7.53;;;;;;;3.70;88.11;92311.17;1823288;78;21187;-75
2020/12/25 11:14:12;;;;;;;12.68;7.55;;;;;;;3.66;87.94;92313.08;1811375;76;21239;-75
2020/12/25 11:16:40;;;;;;;7.42;6.33;;;;;;;3.64;87.91;92316.13;1807898;78;21167;-75
2020/12/25 11:19:09;;;;;;;7.83;5.47;;;;;;;3.59;87.58;92310.36;1813863;78;21091;-76
2020/12/25 11:21:39;;;;;;;7.70;6.10;;;;;;;3.54;87.25;92323.59;1817675;78;21412;-76
2020/12/25 11:24:08;;;;;;;9.75;6.85;;;;;;;3.46;87.14;92323.36;1817861;76;21198;-75
2020/12/25 11:26:36;;;;;;;10.35;7.75;;;;;;;3.36;87.31;92317.36;1877137;76;21143;-75
2020/12/25 11:29:07;;;;;;;16.02;10.13;;;;;;;3.29;87.34;92324.80;1798799;79;21602;-76
2020/12/25 11:31:37;;;;;;;14.63;9.65;;;;;;;3.23;87.36;92320.14;1801857;78;21175;-75
2020/12/25 11:34:06;;;;;;;16.50;9.98;;;;;;;3.17;87.17;92307.66;1794293;78;21216;-75
2020/12/25 11:36:35;;;;;;;10.10;6.47;;;;;;;3.11;87.19;92311.25;1803162;76;21360;-75
2020/12/25 11:39:05;;;;;;;13.25;7.65;;;;;;;3.01;86.70;92324.06;1817095;78;21197;-76
2020/12/25 11:41:33;;;;;;;8.83;6.10;;;;;;;2.87;86.85;92325.30;1783442;80;21115;-75
2020/12/25 11:44:02;;;;;;;5.60;4.72;;;;;;;2.80;87.02;92307.22;1755798;80;21191;-74
2020/12/25 11:46:31;;;;;;;9.70;6.08;;;;;;;2.72;86.94;92318.29;1801538;78;21185;-75
2020/12/25 11:48:59;;;;;;;7.35;5.65;;;;;;;2.63;86.98;92319.38;1809538;79;21192;-74